createdAt,value
2023-05-03T00:00:30.339Z,0.00
2023-05-03T00:01:30.362Z,0.00
2023-05-03T00:02:30.437Z,0.00
2023-05-03T00:03:30.391Z,0.00
2023-05-03T00:04:30.419Z,0.00
2023-05-03T00:05:30.436Z,0.00
2023-05-03T00:06:30.467Z,0.00
2023-05-03T00:07:30.473Z,0.00
2023-05-03T00:08:30.496Z,0.00
2023-05-03T00:09:30.521Z,0.00
2023-05-03T00:10:30.532Z,0.00
2023-05-03T00:11:30.553Z,0.00
2023-05-03T00:12:30.574Z,0.00
2023-05-03T00:13:30.601Z,0.00
2023-05-03T00:14:30.611Z,0.00
2023-05-03T00:15:30.640Z,0.00
2023-05-03T00:16:30.668Z,0.00
2023-05-03T00:17:30.712Z,0.00
2023-05-03T00:18:30.708Z,0.00
2023-05-03T00:19:31.789Z,0.00
2023-05-03T00:20:30.747Z,0.00
2023-05-03T00:21:30.793Z,0.00
2023-05-03T00:22:30.771Z,0.00
2023-05-03T00:23:30.799Z,0.00
2023-05-03T00:24:30.811Z,0.00
2023-05-03T00:25:30.846Z,0.00
2023-05-03T00:26:30.874Z,0.00
2023-05-03T00:27:30.870Z,0.00
2023-05-03T00:28:30.901Z,0.00
2023-05-03T00:29:30.902Z,0.00
2023-05-03T00:30:30.954Z,0.00
2023-05-03T00:31:31.011Z,0.00
2023-05-03T00:32:30.984Z,0.00
2023-05-03T00:33:31.001Z,0.00
2023-05-03T00:34:31.032Z,0.00
2023-05-03T00:35:31.035Z,0.00
2023-05-03T00:36:31.055Z,0.00
2023-05-03T00:37:31.073Z,0.00
2023-05-03T00:38:31.088Z,0.00
2023-05-03T00:39:31.119Z,0.00
2023-05-03T00:40:31.139Z,0.00
2023-05-03T00:41:31.170Z,0.00
2023-05-03T00:42:31.169Z,0.00
2023-05-03T00:43:31.182Z,0.00
2023-05-03T00:44:31.204Z,0.00
2023-05-03T00:45:31.226Z,0.00
2023-05-03T00:46:31.261Z,0.00
2023-05-03T00:47:31.294Z,0.00
2023-05-03T00:48:31.287Z,0.00
2023-05-03T00:49:31.320Z,0.00
2023-05-03T00:50:31.342Z,0.00
2023-05-03T00:51:31.343Z,0.00
2023-05-03T00:52:31.366Z,0.00
2023-05-03T00:53:31.392Z,0.00
2023-05-03T00:54:31.401Z,0.00
2023-05-03T00:55:31.440Z,0.00
2023-05-03T00:56:37.877Z,0.00
2023-05-03T00:57:31.496Z,0.00
2023-05-03T00:58:31.488Z,0.00
2023-05-03T00:59:31.502Z,0.00
2023-05-03T01:00:31.518Z,0.00
2023-05-03T01:01:31.644Z,0.00
2023-05-03T01:02:31.644Z,0.00
2023-05-03T01:03:31.726Z,0.00
2023-05-03T01:04:31.610Z,0.00
2023-05-03T01:05:31.613Z,0.00
2023-05-03T01:06:31.686Z,0.00
2023-05-03T01:07:31.653Z,0.00
2023-05-03T01:08:31.670Z,0.00
2023-05-03T01:09:31.698Z,0.00
2023-05-03T01:10:31.717Z,0.00
2023-05-03T01:11:31.769Z,0.00
2023-05-03T01:12:31.746Z,0.00
2023-05-03T01:13:31.768Z,0.00
2023-05-03T01:14:31.785Z,0.00
2023-05-03T01:15:31.805Z,0.00
2023-05-03T01:16:31.907Z,0.00
2023-05-03T01:17:31.918Z,0.00
2023-05-03T01:18:31.871Z,0.00
2023-05-03T01:19:31.887Z,0.00
2023-05-03T01:20:31.923Z,0.00
2023-05-03T01:21:33.666Z,0.00
2023-05-03T01:22:31.944Z,0.00
2023-05-03T01:23:31.964Z,0.00
2023-05-03T01:24:31.983Z,0.00
2023-05-03T01:25:32.000Z,0.00
2023-05-03T01:26:32.020Z,0.00
2023-05-03T01:27:32.054Z,0.00
2023-05-03T01:28:32.060Z,0.00
2023-05-03T01:29:32.088Z,0.00
2023-05-03T01:30:32.114Z,0.00
2023-05-03T01:31:32.257Z,0.00
2023-05-03T01:32:32.157Z,0.00
2023-05-03T01:33:32.176Z,0.00
2023-05-03T01:34:32.169Z,0.00
2023-05-03T01:35:32.195Z,0.00
2023-05-03T01:36:32.212Z,0.00
2023-05-03T01:37:32.232Z,0.00
2023-05-03T01:38:32.247Z,0.00
2023-05-03T01:39:32.276Z,0.00
2023-05-03T01:40:32.287Z,0.00
2023-05-03T01:41:32.316Z,0.00
2023-05-03T01:42:32.326Z,0.00
2023-05-03T01:43:32.361Z,0.00
2023-05-03T01:44:32.364Z,0.00
2023-05-03T01:45:32.435Z,0.00
2023-05-03T01:46:32.478Z,0.00
2023-05-03T01:47:32.497Z,0.00
2023-05-03T01:48:32.451Z,0.00
2023-05-03T01:49:32.491Z,0.00
2023-05-03T01:50:32.483Z,0.00
2023-05-03T01:51:32.518Z,0.00
2023-05-03T01:52:32.555Z,0.00
2023-05-03T01:53:32.540Z,0.00
2023-05-03T01:54:32.558Z,0.00
2023-05-03T01:55:32.581Z,0.00
2023-05-03T01:56:32.597Z,0.00
2023-05-03T01:57:32.639Z,0.00
2023-05-03T01:58:32.642Z,0.00
2023-05-03T01:59:32.660Z,0.00
2023-05-03T02:00:32.673Z,0.00
2023-05-03T02:01:32.781Z,0.00
2023-05-03T02:02:32.728Z,0.00
2023-05-03T02:03:32.730Z,0.00
2023-05-03T02:04:32.884Z,0.00
2023-05-03T02:05:32.780Z,0.00
2023-05-03T02:06:32.850Z,0.00
2023-05-03T02:07:32.806Z,0.00
2023-05-03T02:08:32.826Z,0.00
2023-05-03T02:09:32.859Z,0.00
2023-05-03T02:10:32.865Z,0.00
2023-05-03T02:11:32.895Z,0.00
2023-05-03T02:12:32.903Z,0.00
2023-05-03T02:13:32.947Z,0.00
2023-05-03T02:14:32.946Z,0.00
2023-05-03T02:15:32.961Z,0.00
2023-05-03T02:16:33.006Z,0.00
2023-05-03T02:17:33.060Z,0.00
2023-05-03T02:18:33.017Z,0.00
2023-05-03T02:19:33.037Z,0.00
2023-05-03T02:20:33.054Z,0.00
2023-05-03T02:21:33.086Z,0.00
2023-05-03T02:22:33.095Z,0.00
2023-05-03T02:23:33.113Z,0.00
2023-05-03T02:24:33.124Z,0.00
2023-05-03T02:25:33.151Z,0.00
2023-05-03T02:26:33.196Z,0.00
2023-05-03T02:27:33.209Z,0.00
2023-05-03T02:28:33.202Z,0.00
2023-05-03T02:29:33.253Z,0.00
2023-05-03T02:30:33.245Z,0.00
2023-05-03T02:31:33.389Z,0.00
2023-05-03T02:32:33.364Z,0.00
2023-05-03T02:33:33.319Z,0.00
2023-05-03T02:34:33.325Z,0.00
2023-05-03T02:35:33.338Z,0.00
2023-05-03T02:36:33.358Z,0.00
2023-05-03T02:37:33.382Z,0.00
2023-05-03T02:38:33.399Z,0.00
2023-05-03T02:39:33.425Z,0.00
2023-05-03T02:40:33.431Z,0.00
2023-05-03T02:41:33.456Z,0.00
2023-05-03T02:42:33.468Z,0.00
2023-05-03T02:43:33.490Z,0.00
2023-05-03T02:44:33.866Z,0.00
2023-05-03T02:45:33.522Z,0.00
2023-05-03T02:46:33.599Z,0.00
2023-05-03T02:47:33.744Z,0.00
2023-05-03T02:48:33.582Z,0.00
2023-05-03T02:49:33.628Z,0.00
2023-05-03T02:50:33.626Z,0.00
2023-05-03T02:51:33.661Z,0.00
2023-05-03T02:52:33.662Z,0.00
2023-05-03T02:53:33.678Z,0.00
2023-05-03T02:54:33.695Z,0.00
2023-05-03T02:55:33.709Z,0.00
2023-05-03T02:56:33.771Z,0.00
2023-05-03T02:57:33.752Z,0.00
2023-05-03T02:58:33.768Z,0.00
2023-05-03T02:59:33.796Z,0.00
2023-05-03T03:00:33.812Z,0.00
2023-05-03T03:01:33.932Z,0.00
2023-05-03T03:02:33.886Z,0.00
2023-05-03T03:03:33.937Z,0.00
2023-05-03T03:04:33.890Z,0.00
2023-05-03T03:05:33.907Z,0.00
2023-05-03T03:06:34.013Z,0.00
2023-05-03T03:07:33.935Z,0.00
2023-05-03T03:08:33.966Z,0.00
2023-05-03T03:09:33.978Z,0.00
2023-05-03T03:10:34.000Z,0.00
2023-05-03T03:11:34.027Z,0.00
2023-05-03T03:12:34.043Z,0.00
2023-05-03T03:13:34.061Z,0.00
2023-05-03T03:14:34.085Z,4.00
2023-05-03T03:15:34.099Z,4.00
2023-05-03T03:16:34.136Z,0.00
2023-05-03T03:17:34.194Z,0.00
2023-05-03T03:18:34.166Z,4.00
2023-05-03T03:19:34.177Z,0.00
2023-05-03T03:20:34.222Z,4.00
2023-05-03T03:21:34.207Z,0.00
2023-05-03T03:22:34.248Z,4.00
2023-05-03T03:23:34.264Z,4.00
2023-05-03T03:24:34.280Z,4.00
2023-05-03T03:25:34.297Z,4.00
2023-05-03T03:26:34.310Z,8.00
2023-05-03T03:27:34.332Z,8.00
2023-05-03T03:28:34.349Z,12.00
2023-05-03T03:29:34.372Z,12.00
2023-05-03T03:30:34.363Z,16.00
2023-05-03T03:31:34.430Z,20.00
2023-05-03T03:32:34.450Z,20.00
2023-05-03T03:33:34.434Z,24.00
2023-05-03T03:34:34.453Z,24.00
2023-05-03T03:35:34.487Z,32.00
2023-05-03T03:36:34.503Z,36.00
2023-05-03T03:37:34.552Z,40.00
2023-05-03T03:38:34.559Z,48.00
2023-05-03T03:39:34.556Z,52.00
2023-05-03T03:40:34.566Z,60.00
2023-05-03T03:41:34.589Z,72.00
2023-05-03T03:42:34.598Z,80.00
2023-05-03T03:43:34.612Z,92.00
2023-05-03T03:44:34.653Z,100.00
2023-05-03T03:45:34.691Z,116.00
2023-05-03T03:46:34.709Z,128.00
2023-05-03T03:47:34.725Z,140.00
2023-05-03T03:48:34.708Z,160.00
2023-05-03T03:49:34.753Z,176.00
2023-05-03T03:50:34.753Z,192.00
2023-05-03T03:51:34.761Z,212.00
2023-05-03T03:52:34.785Z,232.00
2023-05-03T03:53:34.822Z,256.00
2023-05-03T03:54:34.835Z,280.00
2023-05-03T03:55:34.846Z,308.00
2023-05-03T03:56:34.864Z,332.00
2023-05-03T03:57:34.873Z,360.00
2023-05-03T03:58:34.894Z,388.00
2023-05-03T03:59:34.922Z,420.00
2023-05-03T04:00:34.955Z,452.00
2023-05-03T04:01:34.948Z,484.00
2023-05-03T04:02:35.132Z,520.00
2023-05-03T04:03:35.092Z,552.00
2023-05-03T04:04:35.089Z,592.00
2023-05-03T04:05:35.039Z,628.00
2023-05-03T04:06:35.111Z,672.00
2023-05-03T04:07:35.074Z,712.00
2023-05-03T04:08:35.087Z,756.00
2023-05-03T04:09:35.090Z,804.00
2023-05-03T04:10:35.123Z,852.00
2023-05-03T04:11:35.170Z,904.00
2023-05-03T04:12:35.147Z,952.00
2023-05-03T04:13:35.172Z,1008.00
2023-05-03T04:14:35.181Z,1064.00
2023-05-03T04:15:35.193Z,1124.00
2023-05-03T04:16:35.231Z,1184.00
2023-05-03T04:17:35.302Z,1252.00
2023-05-03T04:18:35.250Z,1428.00
2023-05-03T04:19:35.272Z,1660.00
2023-05-03T04:20:35.293Z,1768.00
2023-05-03T04:21:35.308Z,1852.00
2023-05-03T04:22:35.323Z,1940.00
2023-05-03T04:23:35.344Z,2032.00
2023-05-03T04:24:35.358Z,2116.00
2023-05-03T04:25:35.409Z,2204.00
2023-05-03T04:26:35.428Z,2292.00
2023-05-03T04:27:35.420Z,2388.00
2023-05-03T04:28:35.430Z,2480.00
2023-05-03T04:29:35.457Z,2576.00
2023-05-03T04:30:35.489Z,2672.00
2023-05-03T04:31:35.494Z,2760.00
2023-05-03T04:32:35.553Z,2848.00
2023-05-03T04:33:35.549Z,2880.00
2023-05-03T04:34:35.551Z,2868.00
2023-05-03T04:35:35.570Z,2804.00
2023-05-03T04:36:35.599Z,2716.00
2023-05-03T04:37:35.611Z,2604.00
2023-05-03T04:38:35.628Z,2504.00
2023-05-03T04:39:35.654Z,2532.00
2023-05-03T04:40:35.671Z,2996.00
2023-05-03T04:41:35.701Z,3548.00
2023-05-03T04:42:35.720Z,3960.00
2023-05-03T04:43:35.731Z,4124.00
2023-05-03T04:44:35.768Z,4244.00
2023-05-03T04:45:35.774Z,4368.00
2023-05-03T04:46:35.874Z,4476.00
2023-05-03T04:47:35.870Z,4576.00
2023-05-03T04:48:35.833Z,4636.00
2023-05-03T04:49:35.857Z,4552.00
2023-05-03T04:50:35.878Z,4584.00
2023-05-03T04:51:35.913Z,4860.00
2023-05-03T04:52:35.934Z,4932.00
2023-05-03T04:53:35.945Z,4916.00
2023-05-03T04:54:35.958Z,4856.00
2023-05-03T04:55:35.980Z,4836.00
2023-05-03T04:56:36.010Z,4768.00
2023-05-03T04:57:36.024Z,4796.00
2023-05-03T04:58:36.042Z,5300.00
2023-05-03T04:59:36.085Z,5512.00
2023-05-03T05:00:36.083Z,5544.00
2023-05-03T05:01:36.150Z,5736.00
2023-05-03T05:02:36.185Z,5852.00
2023-05-03T05:03:36.301Z,5984.00
2023-05-03T05:04:36.175Z,6140.00
2023-05-03T05:05:36.189Z,6368.00
2023-05-03T05:06:36.246Z,6700.00
2023-05-03T05:07:36.240Z,6888.00
2023-05-03T05:08:36.269Z,6580.00
2023-05-03T05:09:36.280Z,6532.00
2023-05-03T05:10:36.317Z,6548.00
2023-05-03T05:11:36.359Z,5772.00
2023-05-03T05:12:36.344Z,5184.00
2023-05-03T05:13:36.386Z,5028.00
2023-05-03T05:14:36.391Z,4928.00
2023-05-03T05:15:36.418Z,5576.00
2023-05-03T05:16:36.545Z,4920.00
2023-05-03T05:17:36.632Z,4416.00
2023-05-03T05:18:36.545Z,4604.00
2023-05-03T05:19:36.497Z,4724.00
2023-05-03T05:20:36.516Z,4492.00
2023-05-03T05:21:36.543Z,4636.00
2023-05-03T05:22:36.566Z,4812.00
2023-05-03T05:23:36.685Z,4516.00
2023-05-03T05:24:36.613Z,4428.00
2023-05-03T05:25:36.634Z,4744.00
2023-05-03T05:26:36.649Z,4652.00
2023-05-03T05:27:36.673Z,4700.00
2023-05-03T05:28:36.700Z,5424.00
2023-05-03T05:29:36.725Z,5532.00
2023-05-03T05:30:36.752Z,4936.00
2023-05-03T05:31:36.806Z,4736.00
2023-05-03T05:32:36.802Z,4596.00
2023-05-03T05:33:36.802Z,6012.00
2023-05-03T05:34:44.762Z,7200.00
2023-05-03T05:35:36.848Z,7488.00
2023-05-03T05:36:36.889Z,6824.00
2023-05-03T05:37:36.896Z,6208.00
2023-05-03T05:38:36.916Z,7000.00
2023-05-03T05:39:36.990Z,6776.00
2023-05-03T05:40:36.963Z,6336.00
2023-05-03T05:41:37.007Z,6880.00
2023-05-03T05:42:37.004Z,7012.00
2023-05-03T05:43:37.045Z,5956.00
2023-05-03T05:44:37.052Z,6048.00
2023-05-03T05:45:37.074Z,5360.00
2023-05-03T05:46:37.191Z,4664.00
2023-05-03T05:47:37.162Z,4888.00
2023-05-03T05:48:37.193Z,5016.00
2023-05-03T05:49:37.188Z,4960.00
2023-05-03T05:50:37.213Z,4596.00
2023-05-03T05:51:37.236Z,4600.00
2023-05-03T05:52:37.269Z,5268.00
2023-05-03T05:53:37.308Z,5276.00
2023-05-03T05:54:37.295Z,4800.00
2023-05-03T05:55:37.446Z,5428.00
2023-05-03T05:56:37.340Z,6980.00
2023-05-03T05:57:37.381Z,10232.00
2023-05-03T05:58:37.494Z,13868.00
2023-05-03T05:59:37.401Z,21056.00
2023-05-03T06:00:37.444Z,25248.00
2023-05-03T06:01:37.481Z,26112.00
2023-05-03T06:02:37.776Z,25568.00
2023-05-03T06:03:37.507Z,25472.00
2023-05-03T06:04:37.583Z,25984.00
2023-05-03T06:05:37.637Z,26560.00
2023-05-03T06:06:37.599Z,27136.00
2023-05-03T06:07:37.590Z,26080.00
2023-05-03T06:08:37.607Z,24512.00
2023-05-03T06:09:37.656Z,25024.00
2023-05-03T06:10:37.675Z,25312.00
2023-05-03T06:11:37.701Z,25536.00
2023-05-03T06:12:37.694Z,24864.00
2023-05-03T06:13:37.717Z,24928.00
2023-05-03T06:14:37.743Z,25024.00
2023-05-03T06:15:37.766Z,25472.00
2023-05-03T06:16:37.817Z,25984.00
2023-05-03T06:17:37.861Z,25536.00
2023-05-03T06:18:37.854Z,26016.00
2023-05-03T06:19:37.863Z,26624.00
2023-05-03T06:20:37.897Z,26496.00
2023-05-03T06:21:37.934Z,27296.00
2023-05-03T06:22:37.946Z,28064.00
2023-05-03T06:23:37.972Z,27904.00
2023-05-03T06:24:38.006Z,27520.00
2023-05-03T06:25:38.013Z,28896.00
2023-05-03T06:26:38.041Z,29056.00
2023-05-03T06:27:38.070Z,29056.00
2023-05-03T06:28:38.105Z,29696.00
2023-05-03T06:29:38.120Z,30272.00
2023-05-03T06:30:38.160Z,30912.00
2023-05-03T06:31:38.237Z,31232.00
2023-05-03T06:32:38.207Z,32000.00
2023-05-03T06:33:38.224Z,32192.00
2023-05-03T06:34:38.256Z,32288.00
2023-05-03T06:35:38.275Z,33504.00
2023-05-03T06:36:38.304Z,32960.00
2023-05-03T06:37:38.334Z,32480.00
2023-05-03T06:38:38.355Z,32928.00
2023-05-03T06:39:38.408Z,32064.00
2023-05-03T06:40:38.648Z,32608.00
2023-05-03T06:41:38.441Z,32960.00
2023-05-03T06:42:38.471Z,33536.00
2023-05-03T06:43:38.518Z,34208.00
2023-05-03T06:44:38.587Z,34016.00
2023-05-03T06:45:38.586Z,34336.00
2023-05-03T06:46:38.716Z,34944.00
2023-05-03T06:47:38.641Z,36544.00
2023-05-03T06:48:38.653Z,37056.00
2023-05-03T06:49:38.656Z,37344.00
2023-05-03T06:50:38.719Z,37632.00
2023-05-03T06:51:38.713Z,37248.00
2023-05-03T06:52:38.738Z,38240.00
2023-05-03T06:53:38.772Z,38112.00
2023-05-03T06:54:38.825Z,37920.00
2023-05-03T06:55:38.815Z,38624.00
2023-05-03T06:56:38.848Z,39328.00
2023-05-03T06:57:38.874Z,40544.00
2023-05-03T06:58:38.916Z,40544.00
2023-05-03T06:59:38.928Z,39872.00
2023-05-03T07:00:38.963Z,40608.00
2023-05-03T07:01:39.004Z,40256.00
2023-05-03T07:02:39.080Z,28544.00
2023-05-03T07:03:41.675Z,10616.00
2023-05-03T07:04:39.068Z,5408.00
2023-05-03T07:05:39.105Z,4896.00
2023-05-03T07:06:52.548Z,4820.00
2023-05-03T07:07:39.159Z,4848.00
2023-05-03T07:08:39.185Z,4868.00
2023-05-03T07:09:43.279Z,4884.00
2023-05-03T07:10:39.235Z,4888.00
2023-05-03T07:11:39.257Z,4972.00
2023-05-03T07:12:39.289Z,5096.00
2023-05-03T07:13:39.310Z,5324.00
2023-05-03T07:14:39.343Z,5792.00
2023-05-03T07:15:39.510Z,6468.00
2023-05-03T07:16:39.418Z,6352.00
2023-05-03T07:17:39.437Z,5940.00
2023-05-03T07:18:39.452Z,5876.00
2023-05-03T07:19:39.480Z,6156.00
2023-05-03T07:20:39.484Z,6240.00
2023-05-03T07:21:39.514Z,6348.00
2023-05-03T07:22:39.535Z,6436.00
2023-05-03T07:23:39.573Z,6540.00
2023-05-03T07:24:39.656Z,6720.00
2023-05-03T07:25:39.623Z,7176.00
2023-05-03T07:26:39.633Z,8044.00
2023-05-03T07:27:39.658Z,8552.00
2023-05-03T07:28:39.702Z,8284.00
2023-05-03T07:29:39.710Z,8440.00
2023-05-03T07:30:39.733Z,8120.00
2023-05-03T07:31:39.756Z,7716.00
2023-05-03T07:32:39.897Z,7372.00
2023-05-03T07:33:39.893Z,7596.00
2023-05-03T07:34:39.833Z,7756.00
2023-05-03T07:35:39.852Z,8040.00
2023-05-03T07:36:39.899Z,8636.00
2023-05-03T07:37:39.920Z,9316.00
2023-05-03T07:38:39.930Z,9312.00
2023-05-03T07:39:39.965Z,9472.00
2023-05-03T07:40:40.056Z,8620.00
2023-05-03T07:41:40.003Z,7412.00
2023-05-03T07:42:40.015Z,6960.00
2023-05-03T07:43:40.055Z,7044.00
2023-05-03T07:44:40.067Z,7144.00
2023-05-03T07:45:40.148Z,7252.00
2023-05-03T07:46:40.108Z,7500.00
2023-05-03T07:47:40.318Z,7380.00
2023-05-03T07:48:40.158Z,7148.00
2023-05-03T07:49:40.207Z,6584.00
2023-05-03T07:50:40.212Z,6364.00
2023-05-03T07:51:40.221Z,6348.00
2023-05-03T07:52:40.280Z,6276.00
2023-05-03T07:53:40.275Z,6296.00
2023-05-03T07:54:40.295Z,6412.00
2023-05-03T07:55:40.324Z,6156.00
2023-05-03T07:56:40.349Z,5668.00
2023-05-03T07:57:40.386Z,5220.00
2023-05-03T07:58:41.091Z,5144.00
2023-05-03T07:59:40.419Z,5164.00
2023-05-03T08:00:40.437Z,5172.00
2023-05-03T08:01:40.460Z,5172.00
2023-05-03T08:02:40.646Z,5052.00
2023-05-03T08:03:40.797Z,5012.00
2023-05-03T08:04:40.697Z,5028.00
2023-05-03T08:05:40.628Z,5068.00
2023-05-03T08:06:40.612Z,5124.00
2023-05-03T08:07:40.602Z,5208.00
2023-05-03T08:08:40.623Z,5244.00
2023-05-03T08:09:40.648Z,5092.00
2023-05-03T08:10:40.700Z,4864.00
2023-05-03T08:11:43.167Z,4912.00
2023-05-03T08:12:40.721Z,4812.00
2023-05-03T08:13:40.743Z,4680.00
2023-05-03T08:14:40.765Z,4752.00
2023-05-03T08:15:40.806Z,4836.00
2023-05-03T08:16:40.832Z,4928.00
2023-05-03T08:17:40.871Z,5036.00
2023-05-03T08:18:40.863Z,5152.00
2023-05-03T08:19:40.930Z,5236.00
2023-05-03T08:20:40.905Z,5228.00
2023-05-03T08:21:40.929Z,5216.00
2023-05-03T08:22:40.964Z,5248.00
2023-05-03T08:23:40.972Z,5184.00
2023-05-03T08:24:41.007Z,5084.00
2023-05-03T08:25:41.025Z,5064.00
2023-05-03T08:26:41.064Z,5328.00
2023-05-03T08:27:41.067Z,5676.00
2023-05-03T08:28:41.091Z,5976.00
2023-05-03T08:29:41.117Z,6068.00
2023-05-03T08:30:41.142Z,5784.00
2023-05-03T08:31:41.373Z,5668.00
2023-05-03T08:32:41.225Z,5788.00
2023-05-03T08:33:41.213Z,5648.00
2023-05-03T08:34:41.228Z,5248.00
2023-05-03T08:35:41.251Z,5264.00
2023-05-03T08:36:41.276Z,5368.00
2023-05-03T08:37:41.297Z,5476.00
2023-05-03T08:38:41.326Z,5468.00
2023-05-03T08:39:41.384Z,5544.00
2023-05-03T08:40:41.375Z,5632.00
2023-05-03T08:41:41.389Z,5524.00
2023-05-03T08:42:41.413Z,5424.00
2023-05-03T08:43:41.438Z,5472.00
2023-05-03T08:44:41.460Z,5688.00
2023-05-03T08:45:41.481Z,5848.00
2023-05-03T08:46:41.564Z,5608.00
2023-05-03T08:47:41.622Z,5316.00
2023-05-03T08:48:41.552Z,5352.00
2023-05-03T08:49:41.577Z,5400.00
2023-05-03T08:50:41.607Z,5424.00
2023-05-03T08:51:41.687Z,5504.00
2023-05-03T08:52:41.646Z,5516.00
2023-05-03T08:53:41.666Z,5460.00
2023-05-03T08:54:41.686Z,5316.00
2023-05-03T08:55:41.728Z,5404.00
2023-05-03T08:56:41.771Z,5476.00
2023-05-03T08:57:41.761Z,5616.00
2023-05-03T08:58:41.804Z,5268.00
2023-05-03T08:59:41.806Z,4984.00
2023-05-03T09:00:41.828Z,4896.00
2023-05-03T09:01:41.901Z,4740.00
2023-05-03T09:02:42.052Z,4772.00
2023-05-03T09:03:41.953Z,4968.00
2023-05-03T09:04:41.920Z,4932.00
2023-05-03T09:05:41.945Z,4660.00
2023-05-03T09:06:42.013Z,4292.00
2023-05-03T09:07:42.063Z,4356.00
2023-05-03T09:08:42.014Z,4560.00
2023-05-03T09:09:43.006Z,4488.00
2023-05-03T09:10:42.118Z,4820.00
2023-05-03T09:11:42.097Z,4756.00
2023-05-03T09:12:42.168Z,4852.00
2023-05-03T09:13:42.134Z,4980.00
2023-05-03T09:14:42.173Z,5216.00
2023-05-03T09:15:42.188Z,5460.00
2023-05-03T09:16:42.243Z,5812.00
2023-05-03T09:17:42.299Z,5960.00
2023-05-03T09:18:42.246Z,5676.00
2023-05-03T09:19:42.275Z,5012.00
2023-05-03T09:20:42.305Z,4552.00
2023-05-03T09:21:42.319Z,4552.00
2023-05-03T09:22:42.343Z,4408.00
2023-05-03T09:23:42.376Z,4412.00
2023-05-03T09:24:42.396Z,4520.00
2023-05-03T09:25:42.419Z,4856.00
2023-05-03T09:26:42.438Z,4984.00
2023-05-03T09:27:42.463Z,4856.00
2023-05-03T09:28:42.493Z,5232.00
2023-05-03T09:29:42.507Z,5504.00
2023-05-03T09:30:42.532Z,5496.00
2023-05-03T09:31:42.579Z,5340.00
2023-05-03T09:32:42.635Z,5224.00
2023-05-03T09:33:42.603Z,5420.00
2023-05-03T09:34:42.625Z,5356.00
2023-05-03T09:35:42.684Z,4864.00
2023-05-03T09:36:44.006Z,4556.00
2023-05-03T09:37:42.703Z,4516.00
2023-05-03T09:38:42.720Z,4424.00
2023-05-03T09:39:42.802Z,4288.00
2023-05-03T09:40:42.785Z,4260.00
2023-05-03T09:41:42.794Z,4180.00
2023-05-03T09:42:42.814Z,4080.00
2023-05-03T09:43:42.855Z,4012.00
2023-05-03T09:44:42.890Z,3948.00
2023-05-03T09:45:42.910Z,3888.00
2023-05-03T09:46:42.906Z,3848.00
2023-05-03T09:47:42.975Z,3812.00
2023-05-03T09:48:42.955Z,3768.00
2023-05-03T09:49:42.976Z,3724.00
2023-05-03T09:50:43.022Z,3680.00
2023-05-03T09:51:43.024Z,3644.00
2023-05-03T09:52:43.046Z,3640.00
2023-05-03T09:53:43.077Z,3640.00
2023-05-03T09:54:43.102Z,3640.00
2023-05-03T09:55:43.206Z,3640.00
2023-05-03T09:56:43.141Z,3648.00
2023-05-03T09:57:43.158Z,3640.00
2023-05-03T09:58:43.190Z,3652.00
2023-05-03T09:59:43.212Z,3668.00
2023-05-03T10:00:43.231Z,3676.00
2023-05-03T10:01:43.301Z,3680.00
2023-05-03T10:02:43.347Z,3696.00
2023-05-03T10:03:43.324Z,3684.00
2023-05-03T10:04:43.354Z,3660.00
2023-05-03T10:05:43.350Z,3620.00
2023-05-03T10:06:43.442Z,3584.00
2023-05-03T10:07:43.476Z,3564.00
2023-05-03T10:08:43.447Z,3552.00
2023-05-03T10:09:43.445Z,3552.00
2023-05-03T10:10:43.467Z,3568.00
2023-05-03T10:11:43.542Z,3588.00
2023-05-03T10:12:43.510Z,3592.00
2023-05-03T10:13:43.541Z,3596.00
2023-05-03T10:14:43.596Z,3600.00
2023-05-03T10:15:43.642Z,3584.00
2023-05-03T10:16:43.620Z,3564.00
2023-05-03T10:17:48.276Z,3540.00
2023-05-03T10:18:43.688Z,3532.00
2023-05-03T10:19:43.722Z,3508.00
2023-05-03T10:20:43.705Z,3492.00
2023-05-03T10:21:43.752Z,3464.00
2023-05-03T10:22:43.762Z,3428.00
2023-05-03T10:23:43.777Z,3416.00
2023-05-03T10:24:43.836Z,3444.00
2023-05-03T10:25:43.842Z,3448.00
2023-05-03T10:26:43.836Z,3436.00
2023-05-03T10:27:43.896Z,3396.00
2023-05-03T10:28:43.912Z,3424.00
2023-05-03T10:29:43.930Z,3440.00
2023-05-03T10:30:43.928Z,3432.00
2023-05-03T10:31:44.128Z,3428.00
2023-05-03T10:32:43.996Z,3436.00
2023-05-03T10:33:44.006Z,3436.00
2023-05-03T10:34:45.185Z,3416.00
2023-05-03T10:35:44.068Z,3412.00
2023-05-03T10:36:49.834Z,3400.00
2023-05-03T10:37:44.091Z,3396.00
2023-05-03T10:38:44.112Z,3388.00
2023-05-03T10:39:44.139Z,3388.00
2023-05-03T10:40:44.162Z,3392.00
2023-05-03T10:41:44.188Z,3408.00
2023-05-03T10:42:44.208Z,3416.00
2023-05-03T10:43:44.248Z,3416.00
2023-05-03T10:44:44.254Z,3436.00
2023-05-03T10:45:44.278Z,3436.00
2023-05-03T10:46:44.406Z,3440.00
2023-05-03T10:47:44.343Z,3448.00
2023-05-03T10:48:44.348Z,3440.00
2023-05-03T10:49:44.386Z,3436.00
2023-05-03T10:50:44.418Z,3448.00
2023-05-03T10:51:44.416Z,3460.00
2023-05-03T10:52:44.444Z,3472.00
2023-05-03T10:53:44.467Z,3448.00
2023-05-03T10:54:44.497Z,3440.00
2023-05-03T10:55:44.518Z,3432.00
2023-05-03T10:56:44.538Z,3428.00
2023-05-03T10:57:44.558Z,3396.00
2023-05-03T10:58:44.593Z,3408.00
2023-05-03T10:59:44.648Z,3376.00
2023-05-03T11:00:44.652Z,3340.00
2023-05-03T11:01:44.710Z,3384.00
2023-05-03T11:02:44.714Z,3392.00
2023-05-03T11:03:44.718Z,3416.00
2023-05-03T11:04:44.805Z,3456.00
2023-05-03T11:05:44.765Z,3460.00
2023-05-03T11:06:44.780Z,3436.00
2023-05-03T11:07:44.802Z,3460.00
2023-05-03T11:08:44.823Z,3464.00
2023-05-03T11:09:46.442Z,3392.00
2023-05-03T11:10:44.867Z,3328.00
2023-05-03T11:11:44.897Z,3344.00
2023-05-03T11:12:44.937Z,3372.00
2023-05-03T11:13:44.962Z,3420.00
2023-05-03T11:14:44.962Z,3448.00
2023-05-03T11:15:47.656Z,3492.00
2023-05-03T11:16:45.029Z,3512.00
2023-05-03T11:17:45.086Z,3520.00
2023-05-03T11:18:45.053Z,3524.00
2023-05-03T11:19:45.082Z,3480.00
2023-05-03T11:20:45.113Z,3456.00
2023-05-03T11:21:46.420Z,3480.00
2023-05-03T11:22:45.165Z,3516.00
2023-05-03T11:23:45.180Z,3540.00
2023-05-03T11:24:45.197Z,3536.00
2023-05-03T11:25:45.225Z,3520.00
2023-05-03T11:26:45.242Z,3500.00
2023-05-03T11:27:47.651Z,3496.00
2023-05-03T11:28:45.290Z,3488.00
2023-05-03T11:29:45.318Z,3500.00
2023-05-03T11:30:45.337Z,3496.00
2023-05-03T11:31:45.454Z,3504.00
2023-05-03T11:32:45.463Z,3508.00
2023-05-03T11:33:47.869Z,3508.00
2023-05-03T11:34:45.434Z,3520.00
2023-05-03T11:35:45.479Z,3524.00
2023-05-03T11:36:45.496Z,3540.00
2023-05-03T11:37:45.502Z,3548.00
2023-05-03T11:38:45.526Z,3564.00
2023-05-03T11:39:45.568Z,3584.00
2023-05-03T11:40:45.574Z,3580.00
2023-05-03T11:41:45.607Z,3584.00
2023-05-03T11:42:45.626Z,3580.00
2023-05-03T11:43:45.647Z,3564.00
2023-05-03T11:44:45.679Z,3580.00
2023-05-03T11:45:45.893Z,3584.00
2023-05-03T11:46:45.871Z,3568.00
2023-05-03T11:47:45.800Z,3540.00
2023-05-03T11:48:45.765Z,3532.00
2023-05-03T11:49:45.816Z,3500.00
2023-05-03T11:50:45.814Z,3468.00
2023-05-03T11:51:48.506Z,3436.00
2023-05-03T11:52:45.883Z,3392.00
2023-05-03T11:53:45.889Z,3360.00
2023-05-03T11:54:45.912Z,3348.00
2023-05-03T11:55:45.956Z,3340.00
2023-05-03T11:56:45.967Z,3344.00
2023-05-03T11:57:45.990Z,3356.00
2023-05-03T11:58:46.015Z,3372.00
2023-05-03T11:59:46.040Z,3376.00
2023-05-03T12:00:46.108Z,3392.00
2023-05-03T12:01:46.101Z,3416.00
2023-05-03T12:02:46.208Z,3444.00
2023-05-03T12:03:46.333Z,3460.00
2023-05-03T12:04:46.705Z,3488.00
2023-05-03T12:05:46.519Z,3508.00
2023-05-03T12:06:47.151Z,3536.00
2023-05-03T12:07:46.369Z,3576.00
2023-05-03T12:08:47.031Z,3600.00
2023-05-03T12:09:53.270Z,3596.00
2023-05-03T12:10:46.877Z,3584.00
2023-05-03T12:11:48.141Z,3572.00
2023-05-03T12:12:50.000Z,3572.00
2023-05-03T12:13:47.768Z,3584.00
2023-05-03T12:14:46.540Z,3584.00
2023-05-03T12:16:46.639Z,3604.00
2023-05-03T12:17:49.823Z,3580.00
2023-05-03T12:18:47.365Z,3572.00
2023-05-03T12:19:48.775Z,3584.00
2023-05-03T12:21:54.120Z,3616.00
2023-05-03T12:22:46.826Z,3628.00
2023-05-03T12:23:46.697Z,3648.00
2023-05-03T12:24:59.683Z,3660.00
2023-05-03T12:25:49.004Z,3680.00
2023-05-03T12:26:48.725Z,3692.00